Fries, Virginia
Current Conditions -  °F | °C
As of 10:55 PM on Wednesday 17 Dec 2014 (Local Time) from KHLX Reporting Station
Clear Clear  
Wind Chill: 24°   Ceiling: Unl
Heat Index: 34°   Visibility: 10mi
Dew Point: 29°   Wind: 16mph
Humidity: 83%   Direction: 290°WNW
Pressure: 30.06"   Gusts: 22mph
Location:  36.72°N, 80.98°W
Report Text: KHLX 180355Z AUTO 29014G19KT 10SM CLR 01/M01 A3006 RMK AO2 T00111015
Loading
Personal Weather Stations






























Interactive Weather Map New forecast layout! Learn more

10-Day Weather Forecast

Advertisements
Track Severe Weather on mobile